Time;durP1;ratioP1;P1;durP2;ratioP2;P2;SDS_P1;SDS_P2;PMS_P1;PMS_P2;Temp;Humidity;BMP_temperature;BMP_pressure;BME280_temperature;BME280_humidity;BME280_pressure;Samples;Min_cycle;Max_cycle;Signal;HPM_P1;HPM_P2
2022/05/25 00:01:54;;;;;;;;;;;;;;;17.61;62.61;95043.56;5134338;27;1020;-49
2022/05/25 00:04:20;;;;;;;;;;;;;;;17.28;63.72;95033.56;5133246;27;969;-49
2022/05/25 00:06:46;;;;;;;;;;;;;;;16.97;64.63;95039.50;5134432;27;1156;-49
2022/05/25 00:09:12;;;;;;;;;;;;;;;16.94;64.90;95037.22;5134263;27;1040;-49
2022/05/25 00:11:39;;;;;;;;;;;;;;;17.03;64.76;95046.78;5132896;28;1028;-49
2022/05/25 00:14:05;;;;;;;;;;;;;;;16.87;64.70;95039.91;5134017;27;1356;-49
2022/05/25 00:16:31;;;;;;;;;;;;;;;16.88;64.75;95036.16;5134140;27;1012;-49
2022/05/25 00:21:42;;;;;;;;;;;;;;;17.01;65.15;95040.75;5134135;28;1020;-49
2022/05/25 00:24:08;;;;;;;;;;;;;;;16.95;64.94;95039.72;5133795;27;961;-49
2022/05/25 00:26:34;;;;;;;;;;;;;;;16.97;65.07;95031.41;5134338;28;996;-49
2022/05/25 00:29:01;;;;;;;;;;;;;;;16.84;64.89;95036.78;5133959;27;1095;-49
2022/05/25 00:31:28;;;;;;;;;;;;;;;16.63;65.75;95026.91;5134185;27;1028;-49
2022/05/25 00:33:54;;;;;;;;;;;;;;;16.55;65.66;95033.31;5133968;27;1020;-49
2022/05/25 00:36:20;;;;;;;;;;;;;;;16.61;65.84;95027.09;5134375;28;1115;-49
2022/05/25 00:38:46;;;;;;;;;;;;;;;16.42;66.06;95034.09;5133599;27;1913;-49
2022/05/25 00:41:12;;;;;;;;;;;;;;;16.31;66.51;95031.94;5133992;28;1016;-49
2022/05/25 00:43:38;;;;;;;;;;;;;;;16.24;66.72;95025.69;5133721;28;1099;-49
2022/05/25 00:46:06;;;;;;;;;;;;;;;16.11;67.06;95031.84;5134613;27;1951;-49
2022/05/25 00:48:35;;;;;;;;;;;;;;;16.21;66.78;95032.31;5137239;27;2526;-49
2022/05/25 00:51:12;;;;;;;;;;;;;;;16.13;67.33;95045.97;5138135;27;963;-49
2022/05/25 00:53:40;;;;;;;;;;;;;;;16.29;66.70;95039.41;5137696;27;1051;-49
2022/05/25 00:56:08;;;;;;;;;;;;;;;16.08;66.39;95043.03;5138311;27;965;-49
2022/05/25 00:58:36;;;;;;;;;;;;;;;15.95;66.65;95041.91;5137634;27;1938;-49
2022/05/25 01:01:03;;;;;;;;;;;;;;;16.11;65.89;95048.03;5137756;27;1059;-49
2022/05/25 01:03:29;;;;;;;;;;;;;;;16.04;66.80;95047.97;5137979;27;973;-49
2022/05/25 01:06:06;;;;;;;;;;;;;;;16.10;66.08;95049.88;5137758;27;1160;-49
2022/05/25 01:08:51;;;;;;;;;;;;;;;16.23;65.46;95053.69;5137248;27;2527;-49
2022/05/25 01:11:35;;;;;;;;;;;;;;;16.02;66.43;95047.34;5137789;27;1020;-49
2022/05/25 01:14:14;;;;;;;;;;;;;;;15.72;67.05;95050.19;5137347;27;1122;-49
2022/05/25 01:16:43;;;;;;;;;;;;;;;15.70;66.95;95054.94;5137479;27;969;-49
2022/05/25 01:19:12;;;;;;;;;;;;;;;15.80;66.69;95058.19;5137191;27;1917;-49
2022/05/25 01:21:45;;;;;;;;;;;;;;;15.88;66.48;95059.06;5137501;27;1040;-49
2022/05/25 01:24:14;;;;;;;;;;;;;;;15.92;66.15;95066.56;5136951;27;1971;-49
2022/05/25 01:26:58;;;;;;;;;;;;;;;15.91;66.31;95069.47;5137317;27;991;-49
2022/05/25 01:29:43;;;;;;;;;;;;;;;15.81;66.40;95070.63;5137069;27;1090;-49
2022/05/25 01:32:14;;;;;;;;;;;;;;;15.70;66.86;95056.81;5137534;27;961;-49
2022/05/25 01:34:43;;;;;;;;;;;;;;;15.71;66.80;95059.31;5137141;27;1011;-49
2022/05/25 01:37:09;;;;;;;;;;;;;;;15.38;67.82;95057.16;5137371;27;1217;-49
2022/05/25 01:39:38;;;;;;;;;;;;;;;15.14;68.86;95071.00;5136874;27;1905;-49
2022/05/25 01:42:04;;;;;;;;;;;;;;;15.14;68.65;95068.31;5137297;27;1075;-49
2022/05/25 01:44:35;;;;;;;;;;;;;;;15.09;68.53;95068.06;5136816;27;1296;-49
2022/05/25 01:47:04;;;;;;;;;;;;;;;15.29;68.22;95069.13;5137186;27;1058;-49
2022/05/25 01:49:35;;;;;;;;;;;;;;;15.50;67.41;95070.13;5136990;27;1040;-49
2022/05/25 01:52:04;;;;;;;;;;;;;;;15.57;67.39;95071.00;5137008;27;956;-49
2022/05/25 01:54:32;;;;;;;;;;;;;;;15.64;67.15;95071.09;5136461;27;1015;-49
2022/05/25 01:57:01;;;;;;;;;;;;;;;15.19;67.55;95077.50;5136560;27;1035;-49
2022/05/25 01:59:27;;;;;;;;;;;;;;;15.12;68.06;95084.69;5136667;27;1996;-49
2022/05/25 02:04:44;;;;;;;;;;;;;;;15.07;68.36;95091.66;5136399;27;1161;-49
2022/05/25 02:07:13;;;;;;;;;;;;;;;15.07;68.38;95089.81;5136400;27;980;-49
2022/05/25 02:09:48;;;;;;;;;;;;;;;15.19;68.36;95088.25;5136423;27;1068;-49
2022/05/25 02:12:37;;;;;;;;;;;;;;;14.97;68.63;95091.97;5136275;27;1028;-49
2022/05/25 02:15:03;;;;;;;;;;;;;;;15.00;68.66;95088.88;5135921;27;2182;-49
2022/05/25 02:17:29;;;;;;;;;;;;;;;14.76;69.14;95096.28;5136530;27;969;-49
2022/05/25 02:19:58;;;;;;;;;;;;;;;14.51;70.39;95087.63;5136236;27;1095;-49
2022/05/25 02:22:32;;;;;;;;;;;;;;;14.53;69.82;95095.53;5136263;27;1109;-49
2022/05/25 02:25:04;;;;;;;;;;;;;;;14.72;69.64;95095.00;5136117;27;1018;-49
2022/05/25 02:27:41;;;;;;;;;;;;;;;14.76;69.04;95100.81;5136216;27;1016;-49
2022/05/25 02:30:13;;;;;;;;;;;;;;;14.71;69.27;95105.94;5136783;27;992;-49
2022/05/25 02:32:45;;;;;;;;;;;;;;;14.69;69.54;95105.31;5136085;27;971;-49
2022/05/25 02:35:12;;;;;;;;;;;;;;;14.52;69.56;95112.72;5135959;27;1040;-49
2022/05/25 02:37:38;;;;;;;;;;;;;;;14.38;70.14;95112.53;5136144;27;1996;-49
2022/05/25 02:40:07;;;;;;;;;;;;;;;14.55;69.73;95117.69;5135865;27;1048;-49
2022/05/25 02:42:36;;;;;;;;;;;;;;;14.74;69.15;95119.00;5135879;27;1131;-49
2022/05/25 02:45:03;;;;;;;;;;;;;;;14.64;69.55;95122.84;5135792;27;1106;-49
2022/05/25 02:47:29;;;;;;;;;;;;;;;14.49;70.05;95124.66;5135533;27;1086;-49
2022/05/25 02:49:55;;;;;;;;;;;;;;;14.38;70.43;95125.97;5135767;27;1978;-49
2022/05/25 02:52:21;;;;;;;;;;;;;;;14.20;70.84;95129.00;5135670;27;1048;-49
2022/05/25 02:54:47;;;;;;;;;;;;;;;14.40;70.56;95137.38;5135290;27;1078;-49
2022/05/25 02:57:13;;;;;;;;;;;;;;;14.60;69.77;95129.59;5135626;27;1034;-49
2022/05/25 02:59:39;;;;;;;;;;;;;;;14.74;69.55;95145.91;5135559;27;1982;-49
2022/05/25 03:02:05;;;;;;;;;;;;;;;14.47;69.87;95137.47;5135560;27;936;-50
2022/05/25 03:04:32;;;;;;;;;;;;;;;14.39;70.36;95134.88;5135347;27;1052;-48
2022/05/25 03:06:59;;;;;;;;;;;;;;;14.58;69.88;95142.41;5114653;28;1012;-49
2022/05/25 03:09:25;;;;;;;;;;;;;;;14.65;69.74;95150.59;5113873;28;1028;-49
2022/05/25 03:11:51;;;;;;;;;;;;;;;14.49;69.74;95153.41;5114865;28;1024;-49
2022/05/25 03:14:17;;;;;;;;;;;;;;;14.07;70.79;95158.38;5114541;28;1906;-49
2022/05/25 03:16:43;;;;;;;;;;;;;;;13.87;71.82;95163.44;5114358;28;1017;-49
2022/05/25 03:19:09;;;;;;;;;;;;;;;13.94;72.23;95166.22;5114890;28;1913;-49
2022/05/25 03:21:35;;;;;;;;;;;;;;;14.10;71.63;95167.94;5114320;28;1013;-48
2022/05/25 03:24:01;;;;;;;;;;;;;;;14.27;71.09;95172.16;5114256;27;1011;-49
2022/05/25 03:26:27;;;;;;;;;;;;;;;14.49;70.46;95172.25;5114491;28;1039;-49
2022/05/25 03:28:53;;;;;;;;;;;;;;;14.34;70.70;95175.78;5114608;28;987;-49
2022/05/25 03:31:19;;;;;;;;;;;;;;;14.06;72.04;95176.38;5114530;28;1052;-49
2022/05/25 03:33:45;;;;;;;;;;;;;;;14.25;72.20;95182.25;5126125;27;2544;-49
2022/05/25 03:36:12;;;;;;;;;;;;;;;14.36;71.76;95180.94;5134771;27;1257;-49
2022/05/25 03:38:38;;;;;;;;;;;;;;;14.42;71.30;95182.94;5134717;27;2000;-48
2022/05/25 03:41:04;;;;;;;;;;;;;;;14.64;70.75;95187.44;5135025;27;1051;-49
2022/05/25 03:43:35;;;;;;;;;;;;;;;14.86;70.67;95189.38;5134451;27;996;-49
2022/05/25 03:46:01;;;;;;;;;;;;;;;14.78;70.45;95190.31;5134741;27;1008;-48
2022/05/25 03:48:27;;;;;;;;;;;;;;;14.97;70.17;95188.91;5134332;27;1020;-48
2022/05/25 03:50:53;;;;;;;;;;;;;;;15.16;70.05;95188.31;5134555;27;1024;-49
2022/05/25 03:53:19;;;;;;;;;;;;;;;15.06;70.34;95189.59;5134577;27;1069;-49
2022/05/25 03:55:45;;;;;;;;;;;;;;;15.02;70.31;95189.16;5134273;27;1106;-49
2022/05/25 03:58:11;;;;;;;;;;;;;;;15.16;70.51;95188.31;5134257;27;1987;-49
2022/05/25 04:00:37;;;;;;;;;;;;;;;15.40;69.91;95197.91;5134451;27;995;-49
2022/05/25 04:03:04;;;;;;;;;;;;;;;15.34;70.23;95198.66;5134359;27;956;-49
2022/05/25 04:05:31;;;;;;;;;;;;;;;15.46;70.64;95198.16;5134216;27;1304;-49
2022/05/25 04:07:58;;;;;;;;;;;;;;;15.45;70.71;95205.41;5134187;27;956;-49
2022/05/25 04:10:25;;;;;;;;;;;;;;;15.60;70.64;95208.91;5134530;27;1076;-49
2022/05/25 04:12:51;;;;;;;;;;;;;;;15.90;70.32;95218.78;5134439;27;1031;-49
2022/05/25 04:15:19;;;;;;;;;;;;;;;16.04;68.88;95220.56;5134182;27;1068;-49
2022/05/25 04:17:45;;;;;;;;;;;;;;;16.28;69.51;95226.59;5134038;27;1914;-49
2022/05/25 04:20:12;;;;;;;;;;;;;;;16.40;68.81;95225.03;5136114;27;991;-49
2022/05/25 04:22:38;;;;;;;;;;;;;;;16.40;69.35;95228.56;5140727;27;952;-49
2022/05/25 04:25:05;;;;;;;;;;;;;;;16.60;67.68;95233.28;5141074;27;1027;-49
2022/05/25 04:27:31;;;;;;;;;;;;;;;16.81;66.32;95229.69;5141113;27;1213;-49
2022/05/25 04:29:57;;;;;;;;;;;;;;;16.98;68.05;95222.16;5141310;27;944;-49
2022/05/25 04:32:23;;;;;;;;;;;;;;;17.16;66.75;95227.84;5141102;27;1134;-49
2022/05/25 04:34:49;;;;;;;;;;;;;;;17.29;66.08;95237.88;5140999;27;1032;-49
2022/05/25 04:40:00;;;;;;;;;;;;;;;17.66;65.00;95233.03;5141145;27;1039;-49
2022/05/25 04:42:29;;;;;;;;;;;;;;;17.89;62.55;95234.56;5140708;27;1015;-49
2022/05/25 04:44:59;;;;;;;;;;;;;;;18.12;62.03;95245.03;5141251;27;1008;-49
2022/05/25 04:47:27;;;;;;;;;;;;;;;18.25;62.36;95236.09;5140782;27;1059;-49
2022/05/25 04:49:53;;;;;;;;;;;;;;;18.42;61.76;95242.78;5140798;27;1824;-49
2022/05/25 04:52:19;;;;;;;;;;;;;;;18.50;61.77;95244.44;5139851;27;1027;-49
2022/05/25 04:54:45;;;;;;;;;;;;;;;18.61;61.48;95246.53;5140558;27;1079;-49
2022/05/25 04:57:20;;;;;;;;;;;;;;;18.75;61.02;95238.41;5140956;27;1298;-49
2022/05/25 04:59:48;;;;;;;;;;;;;;;18.81;61.26;95237.59;5141035;27;1979;-49
2022/05/25 05:02:14;;;;;;;;;;;;;;;18.83;61.39;95243.63;5140704;27;1086;-49
2022/05/25 05:04:41;;;;;;;;;;;;;;;18.88;61.33;95243.84;5139550;27;1152;-48
2022/05/25 05:07:07;;;;;;;;;;;;;;;19.24;59.41;95242.50;5120028;28;1008;-49
2022/05/25 05:09:33;;;;;;;;;;;;;;;19.69;57.82;95243.38;5119856;27;1016;-49
2022/05/25 05:12:00;;;;;;;;;;;;;;;20.41;56.90;95253.22;5120065;28;1036;-49
2022/05/25 05:14:26;;;;;;;;;;;;;;;21.15;55.09;95248.84;5119678;27;1265;-49
2022/05/25 05:16:58;;;;;;;;;;;;;;;21.77;52.58;95242.53;5118557;27;964;-49
2022/05/25 05:19:25;;;;;;;;;;;;;;;22.09;52.17;95242.31;5133643;27;2539;-49
2022/05/25 05:21:54;;;;;;;;;;;;;;;21.99;52.80;95243.69;5140730;27;1051;-49
2022/05/25 05:24:20;;;;;;;;;;;;;;;21.64;53.29;95233.47;5140426;27;960;-50
2022/05/25 05:26:47;;;;;;;;;;;;;;;22.20;52.86;95239.63;5140448;27;1540;-51
2022/05/25 05:29:13;;;;;;;;;;;;;;;22.75;51.48;95246.78;5140314;27;955;-51
2022/05/25 05:31:39;;;;;;;;;;;;;;;22.93;50.16;95245.84;5138070;27;1003;-51
2022/05/25 05:34:05;;;;;;;;;;;;;;;23.10;49.93;95253.34;5136868;27;1051;-51
2022/05/25 05:36:35;;;;;;;;;;;;;;;23.35;48.72;95247.63;5136345;27;1959;-51
2022/05/25 05:39:05;;;;;;;;;;;;;;;23.17;49.39;95248.59;5137163;27;1981;-51
2022/05/25 05:41:41;;;;;;;;;;;;;;;22.86;50.59;95256.03;5137152;27;963;-53
2022/05/25 05:44:08;;;;;;;;;;;;;;;22.12;51.61;95260.91;5137140;27;1027;-50
2022/05/25 05:46:36;;;;;;;;;;;;;;;21.81;53.47;95254.59;5137273;27;951;-50
2022/05/25 05:49:04;;;;;;;;;;;;;;;21.67;53.67;95256.66;5136965;27;953;-50
2022/05/25 05:51:30;;;;;;;;;;;;;;;21.43;54.14;95259.19;5137060;27;1026;-50
2022/05/25 05:53:57;;;;;;;;;;;;;;;21.23;55.02;95258.59;5136569;27;1020;-50
2022/05/25 05:56:23;;;;;;;;;;;;;;;21.43;54.94;95259.19;5136927;27;1250;-50
2022/05/25 05:58:49;;;;;;;;;;;;;;;21.47;55.00;95264.22;5136608;27;1992;-50
2022/05/25 06:01:16;;;;;;;;;;;;;;;21.61;54.93;95263.03;5137066;27;980;-50
2022/05/25 06:03:42;;;;;;;;;;;;;;;21.58;55.57;95253.41;5135663;27;968;-50
2022/05/25 06:06:08;;;;;;;;;;;;;;;21.55;56.06;95253.88;5136573;27;1192;-50
2022/05/25 06:08:34;;;;;;;;;;;;;;;21.70;54.77;95245.31;5136462;27;1025;-49
2022/05/25 06:11:00;;;;;;;;;;;;;;;21.82;54.34;95253.56;5136490;27;1016;-50
2022/05/25 06:13:26;;;;;;;;;;;;;;;21.80;53.50;95247.53;5136564;27;1060;-50
2022/05/25 06:21:23;;;;;;;;;;;;;;;22.17;52.20;95253.69;5134477;27;2588;-50
2022/05/25 06:23:50;;;;;;;;;;;;;;;22.38;53.62;95257.81;5156801;27;1070;-50
2022/05/25 06:26:16;;;;;;;;;;;;;;;22.59;52.08;95263.81;5140405;27;2548;-50
2022/05/25 06:28:43;;;;;;;;;;;;;;;22.76;52.50;95258.50;5135959;27;1012;-50
2022/05/25 06:31:09;;;;;;;;;;;;;;;22.99;52.57;95271.31;5135926;27;1043;-50
2022/05/25 06:33:35;;;;;;;;;;;;;;;23.14;51.80;95274.44;5136068;27;1044;-50
2022/05/25 06:36:24;;;;;;;;;;;;;;;23.27;50.59;95272.56;5135978;27;973;-50
2022/05/25 06:38:50;;;;;;;;;;;;;;;23.43;50.19;95274.56;5156102;27;2589;-50
2022/05/25 06:41:17;;;;;;;;;;;;;;;23.62;50.98;95275.25;5156670;27;1039;-50
2022/05/25 06:43:43;;;;;;;;;;;;;;;23.64;50.76;95280.44;5155370;27;1016;-50
2022/05/25 06:46:11;;;;;;;;;;;;;;;23.72;51.65;95283.66;5156432;27;1099;-49
2022/05/25 06:48:37;;;;;;;;;;;;;;;23.86;50.89;95289.69;5156335;27;1000;-50
2022/05/25 06:51:10;;;;;;;;;;;;;;;24.14;50.42;95288.91;5156262;27;1532;-50
2022/05/25 06:53:37;;;;;;;;;;;;;;;24.26;49.99;95282.56;5156428;27;987;-50
2022/05/25 06:56:03;;;;;;;;;;;;;;;24.12;50.77;95293.78;5156358;27;1043;-50
2022/05/25 06:58:29;;;;;;;;;;;;;;;24.25;49.96;95287.22;5156367;27;1933;-50
2022/05/25 07:00:55;;;;;;;;;;;;;;;24.42;49.23;95290.00;5156156;27;1002;-50
2022/05/25 07:03:21;;;;;;;;;;;;;;;24.49;50.10;95287.94;5155169;27;976;-50
2022/05/25 07:05:47;;;;;;;;;;;;;;;24.42;49.17;95292.72;5145169;27;1224;-50
2022/05/25 07:08:14;;;;;;;;;;;;;;;24.24;47.71;95287.44;5135736;27;1058;-50
2022/05/25 07:10:45;;;;;;;;;;;;;;;24.31;48.69;95280.75;5135167;27;1048;-50
2022/05/25 07:13:15;;;;;;;;;;;;;;;24.72;48.50;95287.03;5136466;27;2600;-51
2022/05/25 07:15:42;;;;;;;;;;;;;;;24.95;47.85;95285.22;5155670;27;1035;-50
2022/05/25 07:18:08;;;;;;;;;;;;;;;24.89;46.89;95286.19;5155750;27;1984;-50
2022/05/25 07:20:35;;;;;;;;;;;;;;;25.11;48.34;95287.09;5155823;27;1070;-50
2022/05/25 07:23:01;;;;;;;;;;;;;;;25.29;45.12;95280.59;5156110;27;1030;-50
2022/05/25 07:25:28;;;;;;;;;;;;;;;25.51;44.71;95275.13;5155612;27;1059;-50
2022/05/25 07:27:54;;;;;;;;;;;;;;;25.75;44.17;95276.84;5155892;27;1027;-50
2022/05/25 07:30:20;;;;;;;;;;;;;;;25.88;44.40;95276.47;5155481;27;1007;-50
2022/05/25 07:32:46;;;;;;;;;;;;;;;25.75;44.73;95269.47;5155528;27;961;-50
2022/05/25 07:35:14;;;;;;;;;;;;;;;25.64;46.05;95263.00;5155859;27;1035;-49
2022/05/25 07:37:43;;;;;;;;;;;;;;;25.43;45.17;95270.09;5155832;27;1040;-50
2022/05/25 07:40:18;;;;;;;;;;;;;;;25.55;46.01;95269.19;5155544;27;1055;-50
2022/05/25 07:42:46;;;;;;;;;;;;;;;25.98;46.02;95271.13;5155444;27;1042;-49
2022/05/25 07:45:12;;;;;;;;;;;;;;;26.23;45.43;95278.84;5155796;27;1046;-50
2022/05/25 07:47:38;;;;;;;;;;;;;;;26.40;44.68;95276.00;5155438;27;968;-49
2022/05/25 07:50:05;;;;;;;;;;;;;;;26.40;44.65;95280.66;5155614;27;1165;-48
2022/05/25 07:52:33;;;;;;;;;;;;;;;26.52;45.37;95281.31;5155441;27;1011;-49
2022/05/25 07:54:59;;;;;;;;;;;;;;;26.79;45.84;95280.56;5154993;27;1050;-49
2022/05/25 07:57:25;;;;;;;;;;;;;;;27.00;44.24;95287.84;5155368;27;979;-50
2022/05/25 07:59:51;;;;;;;;;;;;;;;26.95;44.61;95287.00;5155082;27;1918;-53
2022/05/25 08:07:54;;;;;;;;;;;;;;;26.87;43.69;95291.84;5134230;27;1032;-49
2022/05/25 08:10:22;;;;;;;;;;;;;;;27.19;42.83;95291.03;5134359;27;1003;-49
2022/05/25 08:12:49;;;;;;;;;;;;;;;27.42;42.28;95289.84;5134229;27;1530;-49
2022/05/25 08:15:15;;;;;;;;;;;;;;;27.49;42.35;95284.16;5153168;27;2601;-49
2022/05/25 08:17:43;;;;;;;;;;;;;;;27.45;42.00;95286.59;5154684;27;1008;-49
2022/05/25 08:20:10;;;;;;;;;;;;;;;27.40;42.80;95280.25;5154883;27;1913;-49
2022/05/25 08:22:39;;;;;;;;;;;;;;;27.50;43.77;95283.03;5155127;27;1107;-49
2022/05/25 08:25:07;;;;;;;;;;;;;;;27.70;42.68;95281.50;5154789;27;960;-50
2022/05/25 08:27:33;;;;;;;;;;;;;;;27.62;43.15;95278.19;5154969;27;1025;-49
2022/05/25 08:29:59;;;;;;;;;;;;;;;27.87;43.78;95276.66;5155078;27;1055;-49
2022/05/25 08:32:25;;;;;;;;;;;;;;;27.97;43.93;95274.00;5154847;27;999;-49
2022/05/25 08:34:51;;;;;;;;;;;;;;;28.11;44.36;95279.81;5154782;27;1028;-49
2022/05/25 08:37:17;;;;;;;;;;;;;;;28.18;43.72;95280.41;5154946;27;1031;-49
2022/05/25 08:39:43;;;;;;;;;;;;;;;28.31;44.15;95290.06;5154574;27;1909;-49
2022/05/25 08:42:13;;;;;;;;;;;;;;;28.40;44.10;95287.59;5154573;27;1087;-50
2022/05/25 08:44:41;;;;;;;;;;;;;;;28.18;43.47;95285.91;5154882;27;983;-50
2022/05/25 08:47:08;;;;;;;;;;;;;;;28.28;44.72;95292.53;5154555;27;996;-49
2022/05/25 08:49:35;;;;;;;;;;;;;;;28.35;44.53;95290.34;5154884;27;1036;-49
2022/05/25 08:52:07;;;;;;;;;;;;;;;28.38;42.98;95295.31;5154397;27;1251;-49
2022/05/25 08:54:35;;;;;;;;;;;;;;;28.33;45.22;95292.56;5154650;27;1035;-49
2022/05/25 08:57:01;;;;;;;;;;;;;;;28.44;43.99;95288.75;5154687;27;1152;-49
2022/05/25 08:59:35;;;;;;;;;;;;;;;28.46;43.77;95292.03;5154342;27;2008;-50
2022/05/25 09:02:10;;;;;;;;;;;;;;;28.47;44.31;95293.69;5154205;27;1845;-49
2022/05/25 09:04:40;;;;;;;;;;;;;;;28.41;44.71;95295.59;5153849;27;1151;-49
2022/05/25 09:07:18;;;;;;;;;;;;;;;28.67;45.17;95292.13;5134555;27;995;-49
2022/05/25 09:09:46;;;;;;;;;;;;;;;28.64;43.63;95292.66;5137532;27;1079;-50
2022/05/25 09:12:15;;;;;;;;;;;;;;;28.72;45.85;95283.88;5137633;27;957;-50
2022/05/25 09:14:46;;;;;;;;;;;;;;;28.73;44.79;95277.28;5151376;27;2547;-49
2022/05/25 09:17:19;;;;;;;;;;;;;;;28.92;44.69;95286.66;5158130;27;1030;-50
2022/05/25 09:19:46;;;;;;;;;;;;;;;28.88;44.18;95288.31;5158398;27;1914;-49
2022/05/25 09:22:17;;;;;;;;;;;;;;;28.88;44.99;95287.47;5158101;27;1007;-49
2022/05/25 09:24:43;;;;;;;;;;;;;;;28.90;45.26;95279.78;5158172;27;1031;-49
2022/05/25 09:27:12;;;;;;;;;;;;;;;29.13;45.80;95278.44;5158128;27;956;-49
2022/05/25 09:29:40;;;;;;;;;;;;;;;29.34;44.69;95276.50;5158009;27;1051;-49
2022/05/25 09:32:25;;;;;;;;;;;;;;;29.43;44.04;95283.09;5157645;27;960;-49
2022/05/25 09:35:01;;;;;;;;;;;;;;;29.34;45.91;95277.31;5158103;27;1063;-49
2022/05/25 09:37:51;;;;;;;;;;;;;;;29.42;45.28;95272.34;5157773;27;1040;-49
2022/05/25 09:40:22;;;;;;;;;;;;;;;29.37;44.51;95273.19;5157763;27;965;-49
2022/05/25 09:42:49;;;;;;;;;;;;;;;29.47;45.79;95270.41;5157602;27;1004;-49
2022/05/25 09:45:15;;;;;;;;;;;;;;;29.56;45.48;95267.94;5157785;27;976;-49
2022/05/25 09:47:44;;;;;;;;;;;;;;;29.71;45.22;95272.56;5157583;27;953;-49
2022/05/25 09:50:16;;;;;;;;;;;;;;;29.72;44.89;95260.44;5157533;27;1011;-49
2022/05/25 09:52:47;;;;;;;;;;;;;;;29.82;45.50;95260.44;5157449;27;1127;-49
2022/05/25 09:55:24;;;;;;;;;;;;;;;29.72;44.04;95255.75;5157708;27;1067;-49
2022/05/25 09:58:02;;;;;;;;;;;;;;;29.81;45.19;95255.25;5157218;27;1902;-49
2022/05/25 10:00:34;;;;;;;;;;;;;;;29.96;45.01;95255.19;5157421;27;948;-49
2022/05/25 10:03:22;;;;;;;;;;;;;;;30.07;43.72;95248.53;5157453;27;1031;-49
2022/05/25 10:05:48;;;;;;;;;;;;;;;29.89;41.56;95240.88;5146486;27;1207;-50
2022/05/25 10:08:18;;;;;;;;;;;;;;;29.61;40.26;95243.13;5136480;27;1039;-49
2022/05/25 10:10:50;;;;;;;;;;;;;;;29.86;39.58;95244.19;5137030;27;1011;-49
2022/05/25 10:13:19;;;;;;;;;;;;;;;30.11;37.86;95246.84;5138064;27;2601;-50
2022/05/25 10:15:51;;;;;;;;;;;;;;;30.22;38.56;95246.78;5155767;27;1039;-50
2022/05/25 10:18:32;;;;;;;;;;;;;;;30.25;36.22;95246.22;5156945;27;1913;-50
2022/05/25 10:20:58;;;;;;;;;;;;;;;30.25;38.05;95247.03;5157308;27;1066;-49
2022/05/25 10:23:25;;;;;;;;;;;;;;;30.38;36.17;95236.53;5156663;27;951;-50
2022/05/25 10:25:56;;;;;;;;;;;;;;;30.38;36.69;95240.13;5157059;27;1118;-50
2022/05/25 10:28:24;;;;;;;;;;;;;;;30.47;34.70;95234.84;5156605;27;1927;-50
2022/05/25 10:37:02;;;;;;;;;;;;;;;30.50;33.96;95237.81;5156728;27;961;-50
2022/05/25 10:39:28;;;;;;;;;;;;;;;30.52;34.95;95237.53;5142014;27;2000;-50
2022/05/25 10:42:16;;;;;;;;;;;;;;;30.58;35.40;95230.88;5156799;27;1010;-50
2022/05/25 10:44:57;;;;;;;;;;;;;;;30.66;36.25;95237.75;5156375;27;947;-50
2022/05/25 10:47:33;;;;;;;;;;;;;;;30.83;37.50;95234.56;5156399;27;1044;-50
2022/05/25 10:50:00;;;;;;;;;;;;;;;30.79;36.39;95233.50;5156543;27;963;-50
2022/05/25 10:52:38;;;;;;;;;;;;;;;30.84;36.27;95237.03;5156421;27;892;-50
2022/05/25 10:55:05;;;;;;;;;;;;;;;30.90;34.98;95241.44;5156058;27;1090;-50
2022/05/25 10:57:44;;;;;;;;;;;;;;;30.88;35.72;95238.13;5156620;27;1028;-52
2022/05/25 11:00:13;;;;;;;;;;;;;;;30.83;34.21;95232.66;5156128;27;1984;-50
2022/05/25 11:03:08;;;;;;;;;;;;;;;30.56;35.57;95213.78;5156330;27;1180;-52
2022/05/25 11:06:03;;;;;;;;;;;;;;;30.04;35.45;95209.66;5147179;27;1167;-50
2022/05/25 11:08:29;;;;;;;;;;;;;;;30.14;35.94;95213.19;5117669;27;1772;-51
2022/05/25 11:10:55;;;;;;;;;;;;;;;30.38;34.65;95212.53;5135595;27;961;-50
2022/05/25 11:13:24;;;;;;;;;;;;;;;30.67;34.74;95206.28;5137930;27;2584;-50
2022/05/25 11:15:55;;;;;;;;;;;;;;;30.89;35.79;95206.66;5155863;27;1675;-51
2022/05/25 11:18:24;;;;;;;;;;;;;;;30.91;33.25;95204.47;5156109;27;1989;-51
2022/05/25 11:20:53;;;;;;;;;;;;;;;30.90;34.45;95205.56;5155728;27;1204;-50
2022/05/25 11:23:25;;;;;;;;;;;;;;;30.96;33.69;95208.28;5155834;27;983;-50
2022/05/25 11:26:04;;;;;;;;;;;;;;;30.93;32.98;95193.94;5155726;27;1883;-49
2022/05/25 11:28:30;;;;;;;;;;;;;;;30.96;34.50;95197.25;5155527;27;1051;-50
2022/05/25 11:31:15;;;;;;;;;;;;;;;31.03;33.67;95195.78;5154923;27;1031;-50
2022/05/25 11:34:00;;;;;;;;;;;;;;;31.09;31.54;95191.06;5154953;27;1178;-50
2022/05/25 11:36:37;;;;;;;;;;;;;;;31.06;31.48;95194.41;5155221;27;1036;-50
2022/05/25 11:39:17;;;;;;;;;;;;;;;31.00;31.14;95190.88;5147104;27;2507;-50
2022/05/25 11:41:55;;;;;;;;;;;;;;;31.10;32.92;95188.00;5134792;27;977;-50
2022/05/25 11:44:38;;;;;;;;;;;;;;;31.15;31.54;95187.13;5134853;27;944;-50
2022/05/25 11:47:15;;;;;;;;;;;;;;;31.27;32.04;95187.56;5134786;27;928;-50
2022/05/25 11:49:47;;;;;;;;;;;;;;;31.28;30.47;95188.38;5129449;27;2420;-50
2022/05/25 11:52:31;;;;;;;;;;;;;;;31.28;31.63;95189.22;5148287;27;2572;-50
2022/05/25 11:55:01;;;;;;;;;;;;;;;31.25;30.80;95195.31;5148176;27;2780;-50
2022/05/25 11:57:34;;;;;;;;;;;;;;;31.31;31.33;95187.81;5133413;27;1964;-49
2022/05/25 12:03:21;;;;;;;;;;;;;;;31.39;32.32;95183.59;5134459;27;773;-49
2022/05/25 12:05:53;;;;;;;;;;;;;;;31.38;32.71;95177.25;5130401;27;1361;-50
2022/05/25 12:08:19;;;;;;;;;;;;;;;31.46;32.24;95171.09;5134114;27;2423;-50
2022/05/25 12:10:53;;;;;;;;;;;;;;;31.43;32.63;95162.53;5134104;27;1211;-50
2022/05/25 12:13:21;;;;;;;;;;;;;;;31.42;32.32;95172.78;5134531;27;1277;-50
2022/05/25 12:16:03;;;;;;;;;;;;;;;31.43;32.08;95157.03;5134111;27;1087;-50
2022/05/25 12:18:39;;;;;;;;;;;;;;;31.39;33.36;95158.72;5134267;27;1926;-50
2022/05/25 12:21:13;;;;;;;;;;;;;;;31.45;33.07;95150.06;5134072;27;961;-50
2022/05/25 12:23:41;;;;;;;;;;;;;;;31.56;32.65;95156.34;5134359;27;964;-51
2022/05/25 12:26:15;;;;;;;;;;;;;;;31.51;33.36;95160.00;5134027;27;1020;-51
2022/05/25 12:28:43;;;;;;;;;;;;;;;31.55;33.14;95148.34;5133007;28;978;-51
2022/05/25 12:31:12;;;;;;;;;;;;;;;31.43;33.46;95148.72;5134268;27;961;-52
2022/05/25 12:33:40;;;;;;;;;;;;;;;31.48;34.29;95143.19;5134318;27;1052;-51
2022/05/25 12:36:08;;;;;;;;;;;;;;;31.66;35.73;95145.19;5133782;27;929;-53
2022/05/25 12:38:35;;;;;;;;;;;;;;;31.75;33.40;95148.09;5134195;27;1913;-53
2022/05/25 12:41:21;;;;;;;;;;;;;;;31.80;33.82;95144.47;5134740;27;964;-51
2022/05/25 12:43:47;;;;;;;;;;;;;;;31.83;32.64;95141.09;5138345;27;1039;-52
2022/05/25 12:49:04;;;;;;;;;;;;;;;31.78;32.17;95150.28;5138587;27;956;-51
2022/05/25 12:51:34;;;;;;;;;;;;;;;31.77;33.21;95145.03;5137931;27;1090;-52
2022/05/25 12:54:01;;;;;;;;;;;;;;;31.80;32.79;95141.72;5138078;27;977;-51
2022/05/25 12:56:27;;;;;;;;;;;;;;;31.84;32.64;95138.03;5137782;27;1865;-52
2022/05/25 12:58:55;;;;;;;;;;;;;;;31.78;32.08;95143.91;5137854;27;1905;-51
2022/05/25 13:01:27;;;;;;;;;;;;;;;31.74;33.02;95137.34;5137790;27;936;-52
2022/05/25 13:03:56;;;;;;;;;;;;;;;31.67;32.67;95134.94;5137768;27;1016;-51
2022/05/25 13:06:38;;;;;;;;;;;;;;;31.60;33.09;95128.94;5121078;27;1141;-52
2022/05/25 13:09:05;;;;;;;;;;;;;;;31.66;33.56;95134.13;5117205;28;1067;-52
2022/05/25 13:11:39;;;;;;;;;;;;;;;31.64;33.03;95139.09;5116863;27;965;-51
2022/05/25 13:14:25;;;;;;;;;;;;;;;31.55;32.52;95137.28;5117016;28;1056;-51
2022/05/25 13:16:54;;;;;;;;;;;;;;;31.42;33.13;95131.34;5116960;28;1154;-52
2022/05/25 13:19:32;;;;;;;;;;;;;;;31.50;33.87;95129.91;5117052;28;2081;-52
2022/05/25 13:22:09;;;;;;;;;;;;;;;31.42;34.06;95125.00;5116717;28;1040;-52
2022/05/25 13:24:50;;;;;;;;;;;;;;;31.39;33.68;95128.34;5116867;28;961;-52
2022/05/25 13:27:16;;;;;;;;;;;;;;;31.49;34.02;95128.25;5116833;28;1012;-51
2022/05/25 13:29:45;;;;;;;;;;;;;;;31.60;33.97;95128.94;5116839;28;1059;-52
2022/05/25 13:32:13;;;;;;;;;;;;;;;31.64;33.48;95130.00;5116841;28;1025;-52
2022/05/25 13:34:40;;;;;;;;;;;;;;;31.52;33.31;95131.25;5116647;28;975;-52
2022/05/25 13:37:09;;;;;;;;;;;;;;;31.28;33.91;95122.94;5116652;28;1007;-52
2022/05/25 13:39:35;;;;;;;;;;;;;;;31.10;34.27;95118.16;5116444;28;1913;-52
2022/05/25 13:42:11;;;;;;;;;;;;;;;31.08;34.79;95118.44;5116605;28;1845;-52
2022/05/25 13:44:40;;;;;;;;;;;;;;;31.16;35.35;95116.19;5116527;28;941;-52